sensor_id;sensor_type;location;lat;lon;timestamp;pressure;altitude;pressure_sealevel;temperature;humidity
9335;BME280;4706;41.844;26.082;2023-04-26T00:01:22;99822.97;;;16.36;93.74
9335;BME280;4706;41.844;26.082;2023-04-26T00:03:47;99824.00;;;16.32;94.08
9335;BME280;4706;41.844;26.082;2023-04-26T00:06:13;99822.94;;;16.20;94.97
9335;BME280;4706;41.844;26.082;2023-04-26T00:08:40;99821.13;;;16.12;95.95
9335;BME280;4706;41.844;26.082;2023-04-26T00:11:06;99829.03;;;16.26;94.79
9335;BME280;4706;41.844;26.082;2023-04-26T00:13:32;99820.63;;;16.22;95.80
9335;BME280;4706;41.844;26.082;2023-04-26T00:15:58;99816.56;;;16.04;96.38
9335;BME280;4706;41.844;26.082;2023-04-26T00:18:23;99819.16;;;15.97;97.65
9335;BME280;4706;41.844;26.082;2023-04-26T00:20:49;99805.28;;;15.97;97.52
9335;BME280;4706;41.844;26.082;2023-04-26T00:23:14;99814.09;;;16.15;97.15
9335;BME280;4706;41.844;26.082;2023-04-26T00:25:40;99816.66;;;16.23;97.36
9335;BME280;4706;41.844;26.082;2023-04-26T00:28:06;99808.00;;;16.25;96.77
9335;BME280;4706;41.844;26.082;2023-04-26T00:30:31;99798.25;;;16.15;95.86
9335;BME280;4706;41.844;26.082;2023-04-26T00:32:58;99808.63;;;16.34;95.99
9335;BME280;4706;41.844;26.082;2023-04-26T00:35:24;99805.38;;;16.32;97.37
9335;BME280;4706;41.844;26.082;2023-04-26T00:37:49;99794.94;;;16.41;95.10
9335;BME280;4706;41.844;26.082;2023-04-26T00:40:15;99787.59;;;16.33;95.53
9335;BME280;4706;41.844;26.082;2023-04-26T00:42:41;99791.88;;;16.31;96.30
9335;BME280;4706;41.844;26.082;2023-04-26T00:45:07;99787.59;;;16.49;95.18
9335;BME280;4706;41.844;26.082;2023-04-26T00:47:33;99779.69;;;16.35;96.24
9335;BME280;4706;41.844;26.082;2023-04-26T00:50:00;99775.31;;;16.34;95.91
9335;BME280;4706;41.844;26.082;2023-04-26T00:52:26;99781.06;;;16.41;94.89
9335;BME280;4706;41.844;26.082;2023-04-26T00:54:53;99773.53;;;16.42;95.19
9335;BME280;4706;41.844;26.082;2023-04-26T00:57:19;99779.06;;;16.42;94.74
9335;BME280;4706;41.844;26.082;2023-04-26T00:59:45;99768.69;;;16.39;94.61
9335;BME280;4706;41.844;26.082;2023-04-26T01:02:11;99772.00;;;16.44;94.84
9335;BME280;4706;41.844;26.082;2023-04-26T01:04:37;99781.22;;;16.48;93.95
9335;BME280;4706;41.844;26.082;2023-04-26T01:07:04;99776.22;;;16.38;94.37
9335;BME280;4706;41.844;26.082;2023-04-26T01:09:31;99776.13;;;16.19;95.01
9335;BME280;4706;41.844;26.082;2023-04-26T01:11:57;99768.72;;;16.07;96.37
9335;BME280;4706;41.844;26.082;2023-04-26T01:14:23;99760.47;;;16.11;96.51
9335;BME280;4706;41.844;26.082;2023-04-26T01:16:49;99777.75;;;16.20;96.42
9335;BME280;4706;41.844;26.082;2023-04-26T01:19:16;99770.41;;;16.27;96.46
9335;BME280;4706;41.844;26.082;2023-04-26T01:21:42;99764.59;;;16.33;96.63
9335;BME280;4706;41.844;26.082;2023-04-26T01:24:09;99760.66;;;16.34;95.88
9335;BME280;4706;41.844;26.082;2023-04-26T01:26:35;99755.44;;;16.32;96.70
9335;BME280;4706;41.844;26.082;2023-04-26T01:29:12;99743.91;;;16.30;96.67
9335;BME280;4706;41.844;26.082;2023-04-26T01:31:37;99745.16;;;16.33;96.89
9335;BME280;4706;41.844;26.082;2023-04-26T01:34:03;99751.06;;;16.31;97.07
9335;BME280;4706;41.844;26.082;2023-04-26T01:36:28;99745.88;;;16.30;97.16
9335;BME280;4706;41.844;26.082;2023-04-26T01:38:54;99750.81;;;16.36;97.66
9335;BME280;4706;41.844;26.082;2023-04-26T01:41:19;99756.19;;;16.29;97.61
9335;BME280;4706;41.844;26.082;2023-04-26T01:43:45;99749.81;;;16.29;98.23
9335;BME280;4706;41.844;26.082;2023-04-26T01:46:10;99751.06;;;16.31;97.96
9335;BME280;4706;41.844;26.082;2023-04-26T01:48:35;99750.44;;;16.38;97.73
9335;BME280;4706;41.844;26.082;2023-04-26T01:51:01;99750.53;;;16.25;97.54
9335;BME280;4706;41.844;26.082;2023-04-26T01:53:26;99748.47;;;16.22;96.37
9335;BME280;4706;41.844;26.082;2023-04-26T01:55:52;99748.81;;;16.21;94.93
9335;BME280;4706;41.844;26.082;2023-04-26T01:58:19;99744.00;;;16.18;94.06
9335;BME280;4706;41.844;26.082;2023-04-26T02:00:45;99742.94;;;16.22;94.81
9335;BME280;4706;41.844;26.082;2023-04-26T02:03:10;99732.13;;;16.17;94.74
9335;BME280;4706;41.844;26.082;2023-04-26T02:05:36;99739.69;;;16.20;94.29
9335;BME280;4706;41.844;26.082;2023-04-26T02:08:01;99745.72;;;16.22;94.35
9335;BME280;4706;41.844;26.082;2023-04-26T02:10:26;99739.34;;;16.22;94.37
9335;BME280;4706;41.844;26.082;2023-04-26T02:12:52;99740.50;;;16.21;94.17
9335;BME280;4706;41.844;26.082;2023-04-26T02:15:18;99730.16;;;16.18;93.89
9335;BME280;4706;41.844;26.082;2023-04-26T02:17:43;99740.25;;;16.10;93.91
9335;BME280;4706;41.844;26.082;2023-04-26T02:20:09;99749.72;;;16.09;94.55
9335;BME280;4706;41.844;26.082;2023-04-26T02:22:35;99746.63;;;15.95;93.39
9335;BME280;4706;41.844;26.082;2023-04-26T02:25:01;99745.53;;;15.84;92.85
9335;BME280;4706;41.844;26.082;2023-04-26T02:27:27;99751.22;;;15.75;93.83
9335;BME280;4706;41.844;26.082;2023-04-26T02:29:53;99743.19;;;15.86;94.69
9335;BME280;4706;41.844;26.082;2023-04-26T02:32:18;99744.09;;;16.06;93.19
9335;BME280;4706;41.844;26.082;2023-04-26T02:34:44;99741.69;;;15.88;94.46
9335;BME280;4706;41.844;26.082;2023-04-26T02:37:09;99750.44;;;15.90;95.44
9335;BME280;4706;41.844;26.082;2023-04-26T02:39:35;99738.63;;;15.93;95.88
9335;BME280;4706;41.844;26.082;2023-04-26T02:42:00;99737.38;;;15.91;96.43
9335;BME280;4706;41.844;26.082;2023-04-26T02:44:29;99755.09;;;16.02;96.01
9335;BME280;4706;41.844;26.082;2023-04-26T02:46:57;99740.13;;;15.91;96.01
9335;BME280;4706;41.844;26.082;2023-04-26T02:49:23;99756.06;;;15.94;95.47
9335;BME280;4706;41.844;26.082;2023-04-26T02:51:48;99768.06;;;15.98;95.06
9335;BME280;4706;41.844;26.082;2023-04-26T02:54:13;99759.66;;;15.94;95.65
9335;BME280;4706;41.844;26.082;2023-04-26T02:56:40;99773.28;;;15.99;94.43
9335;BME280;4706;41.844;26.082;2023-04-26T02:59:06;99763.59;;;15.93;94.63
9335;BME280;4706;41.844;26.082;2023-04-26T03:01:31;99774.97;;;16.04;94.30
9335;BME280;4706;41.844;26.082;2023-04-26T03:03:57;99774.50;;;16.02;94.65
9335;BME280;4706;41.844;26.082;2023-04-26T03:06:22;99768.88;;;15.98;95.07
9335;BME280;4706;41.844;26.082;2023-04-26T03:08:48;99774.50;;;16.02;94.40
9335;BME280;4706;41.844;26.082;2023-04-26T03:11:13;99758.13;;;15.97;94.70
9335;BME280;4706;41.844;26.082;2023-04-26T03:13:39;99763.59;;;16.09;94.77
9335;BME280;4706;41.844;26.082;2023-04-26T03:16:05;99757.00;;;16.14;93.88
9335;BME280;4706;41.844;26.082;2023-04-26T03:18:30;99737.63;;;16.01;93.98
9335;BME280;4706;41.844;26.082;2023-04-26T03:20:56;99754.94;;;15.95;94.41
9335;BME280;4706;41.844;26.082;2023-04-26T03:23:21;99766.72;;;15.92;95.46
9335;BME280;4706;41.844;26.082;2023-04-26T03:25:50;99772.38;;;15.95;95.47
9335;BME280;4706;41.844;26.082;2023-04-26T03:28:16;99766.72;;;15.92;95.10
9335;BME280;4706;41.844;26.082;2023-04-26T03:30:42;99755.28;;;15.93;95.46
9335;BME280;4706;41.844;26.082;2023-04-26T03:33:07;99771.28;;;16.00;95.78
9335;BME280;4706;41.844;26.082;2023-04-26T03:35:33;99778.09;;;16.02;95.52
9335;BME280;4706;41.844;26.082;2023-04-26T03:37:58;99769.22;;;15.97;95.60
9335;BME280;4706;41.844;26.082;2023-04-26T03:40:24;99771.03;;;16.05;96.16
9335;BME280;4706;41.844;26.082;2023-04-26T03:42:50;99769.88;;;16.06;96.09
9335;BME280;4706;41.844;26.082;2023-04-26T03:45:16;99775.75;;;16.05;96.00
9335;BME280;4706;41.844;26.082;2023-04-26T03:47:41;99765.66;;;16.12;96.01
9335;BME280;4706;41.844;26.082;2023-04-26T03:50:07;99774.34;;;16.11;95.23
9335;BME280;4706;41.844;26.082;2023-04-26T03:52:33;99778.63;;;16.08;94.55
9335;BME280;4706;41.844;26.082;2023-04-26T03:54:58;99781.31;;;16.05;95.60
9335;BME280;4706;41.844;26.082;2023-04-26T03:57:24;99775.06;;;16.08;95.39
9335;BME280;4706;41.844;26.082;2023-04-26T03:59:50;99772.66;;;16.06;95.55
9335;BME280;4706;41.844;26.082;2023-04-26T04:02:15;99770.50;;;15.99;95.92
9335;BME280;4706;41.844;26.082;2023-04-26T04:04:41;99785.78;;;16.09;95.65
9335;BME280;4706;41.844;26.082;2023-04-26T04:07:06;99771.47;;;16.07;95.27
9335;BME280;4706;41.844;26.082;2023-04-26T04:09:32;99771.56;;;16.11;95.49
9335;BME280;4706;41.844;26.082;2023-04-26T04:11:57;99773.97;;;16.12;94.92
9335;BME280;4706;41.844;26.082;2023-04-26T04:14:22;99773.44;;;16.07;94.76
9335;BME280;4706;41.844;26.082;2023-04-26T04:16:48;99789.28;;;16.06;94.83
9335;BME280;4706;41.844;26.082;2023-04-26T04:19:13;99779.00;;;16.07;94.36
9335;BME280;4706;41.844;26.082;2023-04-26T04:21:39;99781.03;;;16.10;94.59
9335;BME280;4706;41.844;26.082;2023-04-26T04:24:07;99782.31;;;16.12;94.20
9335;BME280;4706;41.844;26.082;2023-04-26T04:26:32;99773.28;;;16.15;94.89
9335;BME280;4706;41.844;26.082;2023-04-26T04:28:58;99774.16;;;16.19;94.73
9335;BME280;4706;41.844;26.082;2023-04-26T04:31:34;99777.41;;;16.21;94.70
9335;BME280;4706;41.844;26.082;2023-04-26T04:33:59;99777.75;;;16.20;94.63
9335;BME280;4706;41.844;26.082;2023-04-26T04:36:25;99786.44;;;16.18;94.72
9335;BME280;4706;41.844;26.082;2023-04-26T04:38:50;99788.84;;;16.20;95.78
9335;BME280;4706;41.844;26.082;2023-04-26T04:41:17;99795.00;;;16.13;95.44
9335;BME280;4706;41.844;26.082;2023-04-26T04:43:44;99774.06;;;16.00;96.21
9335;BME280;4706;41.844;26.082;2023-04-26T04:46:11;99788.50;;;16.21;96.36
9335;BME280;4706;41.844;26.082;2023-04-26T04:48:37;99781.97;;;16.30;96.26
9335;BME280;4706;41.844;26.082;2023-04-26T04:51:03;99775.44;;;16.22;97.21
9335;BME280;4706;41.844;26.082;2023-04-26T04:53:29;99781.59;;;16.15;97.99
9335;BME280;4706;41.844;26.082;2023-04-26T04:55:54;99789.63;;;16.05;98.54
9335;BME280;4706;41.844;26.082;2023-04-26T04:58:21;99781.41;;;15.92;99.26
9335;BME280;4706;41.844;26.082;2023-04-26T05:00:47;99788.31;;;16.14;99.31
9335;BME280;4706;41.844;26.082;2023-04-26T05:03:13;99775.75;;;16.05;99.19
9335;BME280;4706;41.844;26.082;2023-04-26T05:05:39;99773.34;;;16.19;98.63
9335;BME280;4706;41.844;26.082;2023-04-26T05:08:05;99780.59;;;16.23;98.25
9335;BME280;4706;41.844;26.082;2023-04-26T05:10:33;99780.50;;;16.20;97.24
9335;BME280;4706;41.844;26.082;2023-04-26T05:12:59;99781.22;;;16.17;98.39
9335;BME280;4706;41.844;26.082;2023-04-26T05:15:25;99779.19;;;16.30;99.33
9335;BME280;4706;41.844;26.082;2023-04-26T05:17:50;99768.34;;;16.40;98.59
9335;BME280;4706;41.844;26.082;2023-04-26T05:20:16;99778.44;;;16.48;98.59
9335;BME280;4706;41.844;26.082;2023-04-26T05:22:41;99780.13;;;16.53;98.62
9335;BME280;4706;41.844;26.082;2023-04-26T05:25:07;99779.84;;;16.58;97.76
9335;BME280;4706;41.844;26.082;2023-04-26T05:27:33;99779.88;;;16.42;95.97
9335;BME280;4706;41.844;26.082;2023-04-26T05:30:03;99782.03;;;16.49;95.46
9335;BME280;4706;41.844;26.082;2023-04-26T05:32:28;99778.53;;;16.52;96.68
9335;BME280;4706;41.844;26.082;2023-04-26T05:34:54;99780.94;;;16.54;96.40
9335;BME280;4706;41.844;26.082;2023-04-26T05:37:20;99785.50;;;16.62;95.66
9335;BME280;4706;41.844;26.082;2023-04-26T05:39:45;99777.81;;;16.55;96.51
9335;BME280;4706;41.844;26.082;2023-04-26T05:42:11;99778.00;;;16.46;96.06
9335;BME280;4706;41.844;26.082;2023-04-26T05:44:37;99789.19;;;16.34;95.58
9335;BME280;4706;41.844;26.082;2023-04-26T05:47:02;99782.66;;;16.26;95.67
9335;BME280;4706;41.844;26.082;2023-04-26T05:49:28;99796.53;;;16.26;95.88
9335;BME280;4706;41.844;26.082;2023-04-26T05:51:53;99783.53;;;16.46;95.81
9335;BME280;4706;41.844;26.082;2023-04-26T05:54:19;99794.47;;;16.55;97.09
9335;BME280;4706;41.844;26.082;2023-04-26T05:56:44;99795.34;;;16.43;97.71
9335;BME280;4706;41.844;26.082;2023-04-26T05:59:10;99786.06;;;16.36;99.10
9335;BME280;4706;41.844;26.082;2023-04-26T06:01:37;99803.44;;;16.48;98.99
9335;BME280;4706;41.844;26.082;2023-04-26T06:04:02;99800.56;;;16.45;98.31
9335;BME280;4706;41.844;26.082;2023-04-26T06:06:28;99789.34;;;16.57;98.11
9335;BME280;4706;41.844;26.082;2023-04-26T06:08:53;99794.19;;;16.60;97.94
9335;BME280;4706;41.844;26.082;2023-04-26T06:11:19;99778.44;;;16.48;98.18
9335;BME280;4706;41.844;26.082;2023-04-26T06:13:45;99797.34;;;16.59;98.12
9335;BME280;4706;41.844;26.082;2023-04-26T06:16:11;99784.25;;;16.59;97.99
9335;BME280;4706;41.844;26.082;2023-04-26T06:18:37;99778.34;;;16.61;98.34
9335;BME280;4706;41.844;26.082;2023-04-26T06:21:02;99792.66;;;16.79;96.71
9335;BME280;4706;41.844;26.082;2023-04-26T06:23:27;99794.66;;;16.78;96.98
9335;BME280;4706;41.844;26.082;2023-04-26T06:25:53;99798.81;;;16.88;96.06
9335;BME280;4706;41.844;26.082;2023-04-26T06:28:18;99800.97;;;16.94;94.71
9335;BME280;4706;41.844;26.082;2023-04-26T06:30:44;99798.63;;;16.96;95.36
9335;BME280;4706;41.844;26.082;2023-04-26T06:33:10;99799.16;;;17.02;95.32
9335;BME280;4706;41.844;26.082;2023-04-26T06:35:39;99792.94;;;17.09;94.64
9335;BME280;4706;41.844;26.082;2023-04-26T06:38:05;99799.63;;;17.23;94.48
9335;BME280;4706;41.844;26.082;2023-04-26T06:40:30;99798.91;;;17.27;95.41
9335;BME280;4706;41.844;26.082;2023-04-26T06:42:56;99787.91;;;17.34;94.73
9335;BME280;4706;41.844;26.082;2023-04-26T06:45:22;99793.63;;;17.41;93.67
9335;BME280;4706;41.844;26.082;2023-04-26T06:47:50;99788.19;;;17.48;93.63
9335;BME280;4706;41.844;26.082;2023-04-26T06:50:17;99785.28;;;17.60;92.39
9335;BME280;4706;41.844;26.082;2023-04-26T06:52:43;99775.03;;;17.64;91.75
9335;BME280;4706;41.844;26.082;2023-04-26T06:55:08;99790.84;;;17.80;90.41
9335;BME280;4706;41.844;26.082;2023-04-26T06:57:34;99789.88;;;17.91;89.71
9335;BME280;4706;41.844;26.082;2023-04-26T07:00:00;99793.06;;;17.93;89.06
9335;BME280;4706;41.844;26.082;2023-04-26T07:02:25;99797.06;;;18.15;88.08
9335;BME280;4706;41.844;26.082;2023-04-26T07:04:51;99796.81;;;18.47;89.89
9335;BME280;4706;41.844;26.082;2023-04-26T07:07:17;99788.91;;;18.76;87.73
9335;BME280;4706;41.844;26.082;2023-04-26T07:09:43;99791.47;;;19.14;82.14
9335;BME280;4706;41.844;26.082;2023-04-26T07:12:12;99799.88;;;19.52;80.54
9335;BME280;4706;41.844;26.082;2023-04-26T07:14:38;99781.00;;;19.68;82.03
9335;BME280;4706;41.844;26.082;2023-04-26T07:17:08;99794.19;;;20.08;77.15
9335;BME280;4706;41.844;26.082;2023-04-26T07:19:34;99785.56;;;20.28;75.09
9335;BME280;4706;41.844;26.082;2023-04-26T07:22:00;99791.81;;;20.55;76.21
9335;BME280;4706;41.844;26.082;2023-04-26T07:24:26;99790.00;;;20.80;76.67
9335;BME280;4706;41.844;26.082;2023-04-26T07:26:52;99785.72;;;21.01;72.37
9335;BME280;4706;41.844;26.082;2023-04-26T07:29:17;99790.00;;;20.80;69.73
9335;BME280;4706;41.844;26.082;2023-04-26T07:31:43;99788.06;;;20.92;74.60
9335;BME280;4706;41.844;26.082;2023-04-26T07:34:09;99787.72;;;21.00;74.55
9335;BME280;4706;41.844;26.082;2023-04-26T07:36:34;99783.03;;;21.22;72.00
9335;BME280;4706;41.844;26.082;2023-04-26T07:39:00;99788.81;;;21.65;68.77
9335;BME280;4706;41.844;26.082;2023-04-26T07:41:26;99784.91;;;21.98;68.16
9335;BME280;4706;41.844;26.082;2023-04-26T07:43:51;99788.53;;;22.10;66.91
9335;BME280;4706;41.844;26.082;2023-04-26T07:46:16;99793.72;;;22.11;64.79
9335;BME280;4706;41.844;26.082;2023-04-26T07:48:42;99797.78;;;22.17;65.04
9335;BME280;4706;41.844;26.082;2023-04-26T07:51:12;99799.38;;;22.36;63.38
9335;BME280;4706;41.844;26.082;2023-04-26T07:53:38;99803.38;;;22.71;63.52
9335;BME280;4706;41.844;26.082;2023-04-26T07:56:06;99791.78;;;22.65;59.19
9335;BME280;4706;41.844;26.082;2023-04-26T07:58:33;99791.00;;;22.43;60.13
9335;BME280;4706;41.844;26.082;2023-04-26T08:00:59;99789.78;;;22.19;64.03
9335;BME280;4706;41.844;26.082;2023-04-26T08:03:25;99803.78;;;22.26;62.28
9335;BME280;4706;41.844;26.082;2023-04-26T08:05:52;99798.16;;;22.12;60.64
9335;BME280;4706;41.844;26.082;2023-04-26T08:08:18;99798.91;;;21.98;59.82
9335;BME280;4706;41.844;26.082;2023-04-26T08:10:44;99798.97;;;22.16;58.35
9335;BME280;4706;41.844;26.082;2023-04-26T08:13:10;99798.50;;;21.82;56.67
9335;BME280;4706;41.844;26.082;2023-04-26T08:15:35;99791.59;;;21.54;59.34
9335;BME280;4706;41.844;26.082;2023-04-26T08:18:01;99790.38;;;21.48;60.11
9335;BME280;4706;41.844;26.082;2023-04-26T08:20:26;99783.22;;;21.58;63.07
9335;BME280;4706;41.844;26.082;2023-04-26T08:22:55;99789.63;;;21.66;62.20
9335;BME280;4706;41.844;26.082;2023-04-26T08:25:24;99770.91;;;21.88;61.40
9335;BME280;4706;41.844;26.082;2023-04-26T08:27:50;99775.78;;;22.48;59.13
9335;BME280;4706;41.844;26.082;2023-04-26T08:30:17;99778.56;;;22.94;57.46
9335;BME280;4706;41.844;26.082;2023-04-26T08:32:43;99772.50;;;23.07;55.10
9335;BME280;4706;41.844;26.082;2023-04-26T08:35:10;99767.63;;;23.25;51.64
9335;BME280;4706;41.844;26.082;2023-04-26T08:37:35;99766.00;;;23.31;52.27
9335;BME280;4706;41.844;26.082;2023-04-26T08:40:05;99767.88;;;23.59;53.42
9335;BME280;4706;41.844;26.082;2023-04-26T08:42:40;99775.84;;;23.75;53.54
9335;BME280;4706;41.844;26.082;2023-04-26T08:45:09;99771.47;;;23.70;51.92
9335;BME280;4706;41.844;26.082;2023-04-26T08:47:48;99777.59;;;23.44;52.08
9335;BME280;4706;41.844;26.082;2023-04-26T08:50:15;99779.13;;;23.66;55.00
9335;BME280;4706;41.844;26.082;2023-04-26T08:52:42;99777.47;;;23.62;51.97
9335;BME280;4706;41.844;26.082;2023-04-26T08:55:11;99781.50;;;23.57;51.52
9335;BME280;4706;41.844;26.082;2023-04-26T08:57:45;99777.22;;;23.27;52.26
9335;BME280;4706;41.844;26.082;2023-04-26T09:00:11;99782.78;;;23.42;52.03
9335;BME280;4706;41.844;26.082;2023-04-26T09:02:41;99776.16;;;23.88;54.53
9335;BME280;4706;41.844;26.082;2023-04-26T09:05:10;99776.66;;;24.31;50.00
9335;BME280;4706;41.844;26.082;2023-04-26T09:07:41;99781.16;;;24.70;50.98
9335;BME280;4706;41.844;26.082;2023-04-26T09:10:08;99780.97;;;24.91;47.55
9335;BME280;4706;41.844;26.082;2023-04-26T09:12:33;99771.19;;;25.03;44.85
9335;BME280;4706;41.844;26.082;2023-04-26T09:14:59;99773.72;;;24.94;45.15
9335;BME280;4706;41.844;26.082;2023-04-26T09:17:32;99767.59;;;25.03;44.49
9335;BME280;4706;41.844;26.082;2023-04-26T09:19:59;99761.19;;;25.36;44.32
9335;BME280;4706;41.844;26.082;2023-04-26T09:22:35;99757.09;;;25.41;46.60
9335;BME280;4706;41.844;26.082;2023-04-26T09:25:02;99755.28;;;25.58;45.19
9335;BME280;4706;41.844;26.082;2023-04-26T09:27:35;99751.00;;;26.04;46.12
9335;BME280;4706;41.844;26.082;2023-04-26T09:32:59;99747.53;;;26.20;42.03
9335;BME280;4706;41.844;26.082;2023-04-26T09:35:34;99752.72;;;26.21;42.88
9335;BME280;4706;41.844;26.082;2023-04-26T09:40:36;99733.78;;;26.49;43.86
9335;BME280;4706;41.844;26.082;2023-04-26T09:43:16;99736.72;;;26.65;41.85
9335;BME280;4706;41.844;26.082;2023-04-26T09:45:50;99738.97;;;26.27;40.12
9335;BME280;4706;41.844;26.082;2023-04-26T09:48:24;99727.50;;;26.14;40.36
9335;BME280;4706;41.844;26.082;2023-04-26T09:50:55;99723.06;;;26.36;43.26
9335;BME280;4706;41.844;26.082;2023-04-26T09:53:26;99721.88;;;26.61;41.75
9335;BME280;4706;41.844;26.082;2023-04-26T09:55:52;99722.25;;;26.63;41.50
9335;BME280;4706;41.844;26.082;2023-04-26T09:58:18;99708.97;;;26.36;38.91
9335;BME280;4706;41.844;26.082;2023-04-26T10:00:45;99710.94;;;25.92;39.17
9335;BME280;4706;41.844;26.082;2023-04-26T10:03:14;99708.34;;;25.75;41.38
9335;BME280;4706;41.844;26.082;2023-04-26T10:05:42;99704.00;;;25.43;42.09
9335;BME280;4706;41.844;26.082;2023-04-26T10:08:07;99694.75;;;25.08;42.62
9335;BME280;4706;41.844;26.082;2023-04-26T10:10:33;99689.06;;;25.15;43.88
9335;BME280;4706;41.844;26.082;2023-04-26T10:12:59;99684.66;;;25.14;41.67
9335;BME280;4706;41.844;26.082;2023-04-26T10:15:25;99689.22;;;25.35;42.77
9335;BME280;4706;41.844;26.082;2023-04-26T10:17:51;99683.59;;;25.62;42.69
9335;BME280;4706;41.844;26.082;2023-04-26T10:20:19;99671.91;;;25.64;39.47
9335;BME280;4706;41.844;26.082;2023-04-26T10:22:52;99664.78;;;25.83;40.88
9335;BME280;4706;41.844;26.082;2023-04-26T10:25:18;99675.91;;;26.17;40.19
9335;BME280;4706;41.844;26.082;2023-04-26T10:30:12;99676.31;;;25.65;39.63
9335;BME280;4706;41.844;26.082;2023-04-26T10:35:28;99683.00;;;25.75;39.39
9335;BME280;4706;41.844;26.082;2023-04-26T10:40:36;99672.34;;;25.62;38.85
9335;BME280;4706;41.844;26.082;2023-04-26T10:45:41;99675.75;;;25.50;39.25
9335;BME280;4706;41.844;26.082;2023-04-26T10:48:19;99672.16;;;26.00;40.02
9335;BME280;4706;41.844;26.082;2023-04-26T10:51:08;99676.88;;;26.30;39.57
9335;BME280;4706;41.844;26.082;2023-04-26T10:59:08;99659.50;;;26.12;39.23
9335;BME280;4706;41.844;26.082;2023-04-26T11:01:34;99675.53;;;26.38;40.16
9335;BME280;4706;41.844;26.082;2023-04-26T11:04:01;99667.13;;;26.35;38.85
9335;BME280;4706;41.844;26.082;2023-04-26T11:11:59;99653.97;;;25.81;40.60
9335;BME280;4706;41.844;26.082;2023-04-26T11:14:25;99640.88;;;25.67;38.79
9335;BME280;4706;41.844;26.082;2023-04-26T11:16:51;99641.91;;;25.81;38.98
9335;BME280;4706;41.844;26.082;2023-04-26T11:19:16;99648.50;;;25.94;38.84
9335;BME280;4706;41.844;26.082;2023-04-26T11:21:42;99643.81;;;26.11;39.70
9335;BME280;4706;41.844;26.082;2023-04-26T11:24:07;99646.88;;;26.40;38.87
9335;BME280;4706;41.844;26.082;2023-04-26T11:26:33;99642.34;;;26.26;38.64
9335;BME280;4706;41.844;26.082;2023-04-26T11:29:00;99636.88;;;26.15;39.29
9335;BME280;4706;41.844;26.082;2023-04-26T11:31:29;99644.72;;;26.04;39.72
9335;BME280;4706;41.844;26.082;2023-04-26T11:34:02;99642.16;;;25.90;38.64
9335;BME280;4706;41.844;26.082;2023-04-26T11:36:28;99643.97;;;25.77;38.96
9335;BME280;4706;41.844;26.082;2023-04-26T11:38:54;99652.97;;;25.64;40.00
9335;BME280;4706;41.844;26.082;2023-04-26T11:41:21;99660.28;;;25.62;39.50
9335;BME280;4706;41.844;26.082;2023-04-26T11:43:47;99657.34;;;25.42;39.35
9335;BME280;4706;41.844;26.082;2023-04-26T11:46:12;99647.84;;;25.32;40.29
9335;BME280;4706;41.844;26.082;2023-04-26T11:48:38;99641.13;;;25.23;40.53
9335;BME280;4706;41.844;26.082;2023-04-26T11:51:06;99651.50;;;25.29;38.23
9335;BME280;4706;41.844;26.082;2023-04-26T11:53:40;99652.06;;;25.17;39.92
9335;BME280;4706;41.844;26.082;2023-04-26T11:56:19;99657.66;;;24.86;40.21
9335;BME280;4706;41.844;26.082;2023-04-26T11:58:48;99658.19;;;24.74;41.24
9335;BME280;4706;41.844;26.082;2023-04-26T12:03:49;99664.94;;;24.46;42.21
9335;BME280;4706;41.844;26.082;2023-04-26T12:06:15;99654.53;;;23.98;43.48
9335;BME280;4706;41.844;26.082;2023-04-26T12:08:40;99664.75;;;24.22;42.98
9335;BME280;4706;41.844;26.082;2023-04-26T12:11:06;99667.09;;;24.28;43.52
9335;BME280;4706;41.844;26.082;2023-04-26T12:13:32;99663.56;;;24.20;43.35
9335;BME280;4706;41.844;26.082;2023-04-26T12:15:58;99664.38;;;24.17;43.37
9335;BME280;4706;41.844;26.082;2023-04-26T12:18:31;99669.75;;;24.01;43.83
9335;BME280;4706;41.844;26.082;2023-04-26T12:20:57;99665.50;;;23.82;44.85
9335;BME280;4706;41.844;26.082;2023-04-26T12:23:23;99673.97;;;23.74;43.98
9335;BME280;4706;41.844;26.082;2023-04-26T12:25:56;99673.91;;;23.08;46.67
9335;BME280;4706;41.844;26.082;2023-04-26T12:28:24;99671.63;;;22.67;49.18
9335;BME280;4706;41.844;26.082;2023-04-26T12:30:50;99684.09;;;22.48;48.64
9335;BME280;4706;41.844;26.082;2023-04-26T12:33:16;99687.34;;;22.15;48.39
9335;BME280;4706;41.844;26.082;2023-04-26T12:35:44;99690.94;;;21.97;49.15
9335;BME280;4706;41.844;26.082;2023-04-26T12:38:10;99676.50;;;21.74;49.51
9335;BME280;4706;41.844;26.082;2023-04-26T12:40:37;99684.78;;;21.27;50.92
9335;BME280;4706;41.844;26.082;2023-04-26T12:43:02;99695.50;;;21.11;51.73
9335;BME280;4706;41.844;26.082;2023-04-26T12:45:28;99674.31;;;21.14;51.97
9335;BME280;4706;41.844;26.082;2023-04-26T12:47:54;99691.75;;;20.75;53.15
9335;BME280;4706;41.844;26.082;2023-04-26T12:50:20;99696.47;;;20.64;52.29
9335;BME280;4706;41.844;26.082;2023-04-26T12:52:46;99704.09;;;20.70;51.87
9335;BME280;4706;41.844;26.082;2023-04-26T12:55:13;99715.28;;;20.70;51.29
9335;BME280;4706;41.844;26.082;2023-04-26T12:57:40;99709.81;;;20.33;52.93
9335;BME280;4706;41.844;26.082;2023-04-26T13:00:08;99712.00;;;20.06;54.57
9335;BME280;4706;41.844;26.082;2023-04-26T13:02:35;99708.97;;;20.29;55.73
9335;BME280;4706;41.844;26.082;2023-04-26T13:05:01;99721.47;;;20.46;56.30
9335;BME280;4706;41.844;26.082;2023-04-26T13:07:39;99722.75;;;20.52;56.48
9335;BME280;4706;41.844;26.082;2023-04-26T13:10:06;99730.56;;;20.32;55.93
9335;BME280;4706;41.844;26.082;2023-04-26T13:12:31;99734.56;;;20.38;55.90
9335;BME280;4706;41.844;26.082;2023-04-26T13:14:57;99732.44;;;20.17;55.57
9335;BME280;4706;41.844;26.082;2023-04-26T13:17:24;99743.59;;;20.17;56.45
9335;BME280;4706;41.844;26.082;2023-04-26T13:19:50;99757.56;;;20.17;56.90
9335;BME280;4706;41.844;26.082;2023-04-26T13:22:17;99757.41;;;20.03;57.05
9335;BME280;4706;41.844;26.082;2023-04-26T13:24:43;99756.13;;;19.93;57.85
9335;BME280;4706;41.844;26.082;2023-04-26T13:27:08;99779.00;;;19.69;59.08
9335;BME280;4706;41.844;26.082;2023-04-26T13:29:35;99778.34;;;19.49;60.47
9335;BME280;4706;41.844;26.082;2023-04-26T13:32:00;99777.91;;;19.13;63.74
9335;BME280;4706;41.844;26.082;2023-04-26T13:34:27;99792.22;;;19.11;66.63
9335;BME280;4706;41.844;26.082;2023-04-26T13:36:54;99794.16;;;19.07;66.62